createdAt,value
2022-11-06T09:34:02.121Z,99720.88
2022-11-06T09:36:05.808Z,99720.88
2022-11-06T09:38:11.696Z,100181.28
2022-11-06T09:40:21.745Z,100221.13
2022-11-06T09:42:31.590Z,100229.59
2022-11-06T09:45:08.342Z,100240.78
2022-11-06T09:47:20.689Z,100260.00
2022-11-06T09:49:29.109Z,100261.09
2022-11-06T09:51:38.545Z,100262.94
2022-11-06T09:53:48.598Z,100269.25
2022-11-06T09:55:53.197Z,100271.94
2022-11-06T09:57:57.688Z,100270.97
2022-11-06T10:00:02.047Z,100273.16
2022-11-06T10:02:20.532Z,100269.78
2022-11-06T10:04:36.386Z,100267.94
2022-11-06T10:06:38.641Z,100276.56
2022-11-06T10:08:44.030Z,100280.28
2022-11-06T10:10:58.263Z,100278.16
2022-11-06T10:13:06.397Z,100277.34
2022-11-06T10:15:33.787Z,100280.53
2022-11-06T10:17:45.772Z,100278.59
2022-11-06T10:20:20.940Z,100282.06
2022-11-06T10:22:32.213Z,100286.78
2022-11-06T10:24:43.837Z,100289.34
2022-11-06T10:26:52.334Z,100284.09
2022-11-06T10:29:19.643Z,100279.53
2022-11-06T10:31:56.333Z,100283.91
2022-11-06T10:34:09.577Z,100288.69
2022-11-06T10:36:18.629Z,100288.31
2022-11-06T10:38:28.605Z,100295.03
2022-11-06T10:40:33.198Z,100292.91
2022-11-06T10:42:40.276Z,100292.03
2022-11-06T10:44:59.730Z,100290.66
2022-11-06T10:47:16.054Z,100289.09
2022-11-06T10:49:30.170Z,100276.50
2022-11-06T10:51:50.420Z,100273.94
2022-11-06T10:53:58.448Z,100274.28
2022-11-06T10:56:26.650Z,100263.84
2022-11-06T10:58:32.754Z,100268.31
2022-11-06T11:00:35.436Z,100265.69
2022-11-06T11:02:43.872Z,100272.03
2022-11-06T11:04:46.372Z,100266.88
2022-11-06T11:06:48.679Z,100264.34
2022-11-06T11:08:52.259Z,100265.28
2022-11-06T11:11:06.008Z,100258.69
2022-11-06T11:13:20.435Z,100259.78
2022-11-06T11:15:25.031Z,100264.44
2022-11-06T11:17:27.569Z,100256.59
2022-11-06T11:19:44.468Z,100252.88
2022-11-06T11:21:58.838Z,100265.59
2022-11-06T11:24:01.233Z,100264.94
2022-11-06T11:26:17.720Z,100256.72
2022-11-06T11:28:26.703Z,100257.87
2022-11-06T11:30:31.917Z,100265.13
2022-11-06T11:32:34.210Z,100264.03
2022-11-06T11:34:49.273Z,100268.34
2022-11-06T11:37:01.289Z,100261.69
2022-11-06T11:39:03.755Z,100254.63
2022-11-06T11:41:13.707Z,100259.00
2022-11-06T11:43:23.642Z,100258.41
2022-11-06T11:45:25.975Z,100262.31
2022-11-06T11:47:28.376Z,100255.06
2022-11-06T11:49:32.403Z,100250.03
2022-11-06T11:51:47.769Z,100250.59
2022-11-06T11:53:51.664Z,100251.28
2022-11-06T11:55:54.754Z,100246.63
2022-11-06T11:58:00.531Z,100250.50
2022-11-06T12:00:06.252Z,100251.28
2022-11-06T12:02:38.835Z,100252.59
2022-11-06T12:04:43.722Z,100256.03
2022-11-06T12:06:51.701Z,100255.28
2022-11-06T12:08:55.519Z,100260.87
2022-11-06T12:11:06.521Z,100256.94
2022-11-06T12:13:19.301Z,100258.38
2022-11-06T12:15:28.121Z,100264.06
2022-11-06T12:17:34.109Z,100277.50
2022-11-06T12:19:40.236Z,100294.31
2022-11-06T12:21:46.625Z,100305.41
2022-11-06T12:23:57.053Z,100294.25
2022-11-06T12:26:31.666Z,100290.50
2022-11-06T12:28:38.180Z,100306.72
2022-11-06T12:30:45.667Z,100309.75
2022-11-06T12:33:52.027Z,100306.25
2022-11-06T12:36:00.096Z,100314.97
2022-11-06T12:38:47.009Z,100321.09
2022-11-06T12:40:58.628Z,100333.22
2022-11-06T12:43:05.004Z,100339.56
2022-11-06T12:45:12.598Z,100353.97
2022-11-06T12:47:26.536Z,100354.47
2022-11-06T12:49:44.160Z,100354.81
2022-11-06T12:51:49.111Z,100361.91
2022-11-06T12:54:12.220Z,100361.12
2022-11-06T12:56:25.016Z,100347.22
2022-11-06T12:58:52.507Z,100338.22
2022-11-06T13:01:14.750Z,100333.03
2022-11-06T13:03:35.770Z,100341.66
2022-11-06T13:05:38.134Z,100345.47
2022-11-06T13:07:47.103Z,100343.88
2022-11-06T13:10:09.691Z,100336.38
2022-11-06T13:12:22.758Z,100323.81
2022-11-06T13:15:06.912Z,100326.44
2022-11-06T13:17:25.380Z,100314.72
2022-11-06T13:19:35.462Z,100323.81
2022-11-06T13:22:15.973Z,100329.25
2022-11-06T13:25:00.622Z,100323.06
2022-11-06T13:27:24.025Z,100317.31
2022-11-06T13:29:27.969Z,100326.78
2022-11-06T13:31:54.930Z,100324.44
2022-11-06T13:34:01.747Z,100335.34
2022-11-06T13:36:06.703Z,100331.06
2022-11-06T13:38:16.491Z,100334.28
2022-11-06T13:40:36.175Z,100321.75
2022-11-06T13:42:45.154Z,100328.97
2022-11-06T13:44:48.761Z,100320.62
2022-11-06T13:47:17.014Z,100317.16
2022-11-06T13:49:49.073Z,100315.09
2022-11-06T13:51:52.032Z,100313.78
2022-11-06T13:54:03.567Z,100322.59
2022-11-06T13:56:27.662Z,100313.47
2022-11-06T13:59:16.624Z,100305.84
2022-11-06T14:01:29.878Z,100311.44
2022-11-06T14:03:53.778Z,100297.94
2022-11-06T14:06:15.400Z,100284.91
2022-11-06T14:08:42.584Z,100294.50
2022-11-06T14:10:59.338Z,100285.34
2022-11-06T14:13:04.072Z,100283.28
2022-11-06T14:15:26.328Z,100282.06
2022-11-06T14:17:29.361Z,100281.66
2022-11-06T14:19:31.767Z,100279.34
2022-11-06T14:21:37.418Z,100282.66
2022-11-06T14:23:43.124Z,100276.19
2022-11-06T14:25:46.926Z,100275.16
2022-11-06T14:27:49.120Z,100276.16
2022-11-06T14:29:55.350Z,100283.66
2022-11-06T14:32:03.914Z,100272.62
2022-11-06T14:34:27.787Z,100275.59
2022-11-06T14:36:34.694Z,100275.06
2022-11-06T14:38:37.945Z,100265.56
2022-11-06T14:40:40.443Z,100271.88
2022-11-06T14:42:47.448Z,100271.69
2022-11-06T14:45:10.606Z,100270.75
2022-11-06T14:47:26.861Z,100262.09
2022-11-06T14:49:37.530Z,100271.81
2022-11-06T14:51:40.197Z,100265.34
2022-11-06T14:53:49.459Z,100262.97
2022-11-06T14:56:03.596Z,100263.63
2022-11-06T14:58:17.961Z,100254.31
2022-11-06T15:00:48.841Z,100262.56
2022-11-06T15:02:51.310Z,100262.50
2022-11-06T15:05:07.145Z,100265.78
2022-11-06T15:07:44.747Z,100260.25
2022-11-06T15:09:48.666Z,100264.53
2022-11-06T15:11:52.966Z,100265.69
2022-11-06T15:14:15.910Z,100272.72
2022-11-06T15:16:18.450Z,100264.28
2022-11-06T15:18:24.263Z,100270.25
2022-11-06T15:20:31.730Z,100269.31
2022-11-06T15:22:42.737Z,100267.06
2022-11-06T15:25:05.691Z,100271.50
2022-11-06T15:27:20.770Z,100262.03
2022-11-06T15:29:29.629Z,100263.47
2022-11-06T15:31:33.910Z,100268.13
2022-11-06T15:33:45.027Z,100264.25
2022-11-06T15:35:49.814Z,100260.16
2022-11-06T15:38:03.475Z,100255.81
2022-11-06T15:40:06.645Z,100258.22
2022-11-06T15:42:13.764Z,100259.47
2022-11-06T15:44:21.378Z,100259.28
2022-11-06T15:46:30.018Z,100260.13
2022-11-06T15:48:33.091Z,100259.38
2022-11-06T15:50:37.405Z,100255.44
2022-11-06T15:52:40.958Z,100256.84
2022-11-06T15:54:44.376Z,100255.56
2022-11-06T15:56:49.186Z,100255.38
2022-11-06T15:59:10.671Z,100254.34
2022-11-06T16:01:14.053Z,100255.56
2022-11-06T16:03:25.517Z,100261.84
2022-11-06T16:05:31.426Z,100260.25
2022-11-06T16:07:33.740Z,100263.72
2022-11-06T16:09:36.991Z,100258.28
2022-11-06T16:11:39.571Z,100266.22
2022-11-06T16:13:44.683Z,100265.03
2022-11-06T16:15:50.134Z,100254.34
2022-11-06T16:17:52.815Z,100256.28
2022-11-06T16:19:59.954Z,100264.25
2022-11-06T16:22:07.670Z,100261.63
2022-11-06T16:24:15.660Z,100261.94
2022-11-06T16:26:39.432Z,100259.75
2022-11-06T16:28:44.911Z,100257.22
2022-11-06T16:30:49.231Z,100260.97
2022-11-06T16:32:52.094Z,100256.66
2022-11-06T16:34:55.711Z,100262.53
2022-11-06T16:37:04.108Z,100257.72
2022-11-06T16:39:35.361Z,100264.16
2022-11-06T16:42:19.897Z,100260.25
2022-11-06T16:44:31.784Z,100260.25
2022-11-06T16:47:05.932Z,100265.84
2022-11-06T16:49:34.805Z,100258.09
2022-11-06T16:51:37.360Z,100259.47
2022-11-06T16:54:01.633Z,100258.19
2022-11-06T16:56:07.468Z,100258.91
2022-11-06T16:58:16.723Z,100258.91
2022-11-06T17:00:22.661Z,100262.19
2022-11-06T17:02:31.189Z,100260.19
2022-11-06T17:04:34.015Z,100265.31
2022-11-06T17:06:37.515Z,100263.44
2022-11-06T17:08:41.780Z,100258.22
2022-11-06T17:10:46.401Z,100263.97
2022-11-06T17:12:49.002Z,100265.06
2022-11-06T17:14:51.950Z,100274.78
2022-11-06T17:16:59.150Z,100274.69
2022-11-06T17:19:01.794Z,100273.84
2022-11-06T17:21:13.709Z,100270.38
2022-11-06T17:23:17.138Z,100278.75
2022-11-06T17:25:20.197Z,100274.53
2022-11-06T17:27:23.331Z,100281.31
2022-11-06T17:29:26.648Z,100298.66
2022-11-06T17:31:29.347Z,100299.13
2022-11-06T17:33:32.632Z,100311.50
2022-11-06T17:35:35.361Z,100315.78
2022-11-06T17:37:40.884Z,100311.25
2022-11-06T17:39:43.442Z,100301.56
2022-11-06T17:41:46.100Z,100304.50
2022-11-06T17:43:49.529Z,100308.91
2022-11-06T17:45:53.410Z,100313.94
2022-11-06T17:47:56.413Z,100305.50
2022-11-06T17:49:59.248Z,100311.13
2022-11-06T17:52:02.721Z,100314.59
2022-11-06T17:54:05.944Z,100310.72
2022-11-06T17:56:08.910Z,100310.53
2022-11-06T17:58:11.826Z,100307.94
2022-11-06T18:00:17.750Z,100298.84
2022-11-06T18:02:35.264Z,100295.31
2022-11-06T18:04:44.044Z,100304.41
2022-11-06T18:06:50.464Z,100300.44
2022-11-06T18:08:57.913Z,100307.63
2022-11-06T18:11:00.892Z,100310.66
2022-11-06T18:13:03.232Z,100309.66
2022-11-06T18:15:06.350Z,100311.50
2022-11-06T18:17:09.128Z,100306.28
2022-11-06T18:19:16.419Z,100308.19
2022-11-06T18:21:20.530Z,100320.69
2022-11-06T18:23:23.318Z,100318.72
2022-11-06T18:25:26.476Z,100323.28
2022-11-06T18:27:29.598Z,100323.28
2022-11-06T18:29:32.619Z,100321.19
2022-11-06T18:31:36.003Z,100322.88
2022-11-06T18:33:39.125Z,100322.88
2022-11-06T18:35:41.939Z,100326.91
2022-11-06T18:37:45.716Z,100322.78
2022-11-06T18:39:48.285Z,100322.03
2022-11-06T18:41:51.877Z,100331.06
2022-11-06T18:43:58.871Z,100336.41
2022-11-06T18:46:07.229Z,100335.94
2022-11-06T18:48:10.015Z,100347.31
2022-11-06T18:50:13.636Z,100352.53
2022-11-06T18:52:32.395Z,100349.66
2022-11-06T18:54:35.816Z,100350.97
2022-11-06T18:56:39.357Z,100348.13
2022-11-06T18:58:42.280Z,100345.59
2022-11-06T19:00:48.094Z,100348.75
2022-11-06T19:02:51.427Z,100346.97
2022-11-06T19:04:57.570Z,100347.88
2022-11-06T19:07:01.198Z,100344.19
2022-11-06T19:09:04.265Z,100350.72
2022-11-06T19:11:09.281Z,100341.78
2022-11-06T19:13:12.788Z,100347.88
2022-11-06T19:15:15.321Z,100343.34
2022-11-06T19:17:18.421Z,100345.87
2022-11-06T19:19:25.403Z,100337.16
2022-11-06T19:21:30.735Z,100329.59
2022-11-06T19:23:34.062Z,100327.03
2022-11-06T19:25:41.033Z,100328.19
2022-11-06T19:27:44.127Z,100332.66
2022-11-06T19:29:50.676Z,100326.75
2022-11-06T19:31:55.226Z,100321.38
2022-11-06T19:34:02.174Z,100323.38
2022-11-06T19:36:05.903Z,100323.38
2022-11-06T19:38:08.895Z,100317.31
2022-11-06T19:40:11.488Z,100321.75
2022-11-06T19:42:14.448Z,100318.94
2022-11-06T19:44:17.247Z,100323.22
2022-11-06T19:46:26.893Z,100320.59
2022-11-06T19:48:33.243Z,100324.47
2022-11-06T19:51:05.274Z,100325.41
2022-11-06T19:52:58.788Z,100327.41
2022-11-06T19:55:26.606Z,100324.81
2022-11-06T19:57:30.298Z,100324.97
2022-11-06T19:59:33.517Z,100323.72
2022-11-06T20:01:36.684Z,100323.03
2022-11-06T20:03:39.559Z,100339.88
2022-11-06T20:05:42.854Z,100336.03
2022-11-06T20:07:46.495Z,100336.41
2022-11-06T20:09:49.555Z,100340.97
2022-11-06T20:11:52.925Z,100340.75
2022-11-06T20:13:55.652Z,100346.97
2022-11-06T20:15:58.339Z,100350.41
2022-11-06T20:18:01.050Z,100355.03
2022-11-06T20:20:04.057Z,100364.56
2022-11-06T20:22:07.415Z,100364.31
2022-11-06T20:24:11.238Z,100366.00
2022-11-06T20:26:15.545Z,100362.84
2022-11-06T20:28:18.625Z,100361.09
2022-11-06T20:30:21.638Z,100362.16
2022-11-06T20:32:24.507Z,100357.72
2022-11-06T20:34:27.609Z,100365.78
2022-11-06T20:36:31.545Z,100374.41
2022-11-06T20:38:34.220Z,100357.81
2022-11-06T20:40:37.209Z,100359.50
2022-11-06T20:42:45.635Z,100377.47
2022-11-06T20:44:48.385Z,100393.66
2022-11-06T20:46:53.737Z,100392.97
2022-11-06T20:49:00.970Z,100401.09
2022-11-06T20:51:06.837Z,100404.25
2022-11-06T20:53:10.154Z,100404.19
2022-11-06T20:55:12.439Z,100408.16
2022-11-06T20:57:16.736Z,100407.47
2022-11-06T20:59:19.893Z,100411.16
2022-11-06T21:01:25.761Z,100409.06
2022-11-06T21:03:28.584Z,100411.97
2022-11-06T21:05:31.552Z,100418.00
2022-11-06T21:07:35.631Z,100407.53
2022-11-06T21:09:38.247Z,100402.00
2022-11-06T21:11:41.176Z,100401.84
2022-11-06T21:13:45.479Z,100404.69
2022-11-06T21:15:47.962Z,100403.22
2022-11-06T21:17:50.875Z,100401.69
2022-11-06T21:19:53.191Z,100407.97
2022-11-06T21:21:56.914Z,100414.13
2022-11-06T21:24:01.507Z,100410.66
2022-11-06T21:26:08.693Z,100414.97
2022-11-06T21:28:10.895Z,100419.25
2022-11-06T21:30:13.408Z,100420.94
2022-11-06T21:32:16.125Z,100421.31
2022-11-06T21:34:19.348Z,100415.88
2022-11-06T21:36:25.725Z,100423.47
2022-11-06T21:38:27.923Z,100421.56
2022-11-06T21:40:30.216Z,100418.94
2022-11-06T21:42:32.782Z,100418.78
2022-11-06T21:44:35.064Z,100422.72
2022-11-06T21:46:41.215Z,100417.28
2022-11-06T21:48:48.215Z,100422.72
2022-11-06T21:50:50.739Z,100416.06
2022-11-06T21:53:12.312Z,100417.97
2022-11-06T21:55:33.526Z,100407.47
2022-11-06T21:57:35.697Z,100408.00
2022-11-06T21:59:41.586Z,100405.47
2022-11-06T22:01:44.631Z,100415.38
2022-11-06T22:03:47.314Z,100417.75
2022-11-06T22:05:49.508Z,100420.44
2022-11-06T22:07:51.747Z,100421.13
2022-11-06T22:09:54.186Z,100424.19
2022-11-06T22:11:56.471Z,100436.91
2022-11-06T22:14:01.327Z,100434.50
2022-11-06T22:16:03.953Z,100433.03
2022-11-06T22:18:06.189Z,100429.12
2022-11-06T22:20:09.069Z,100422.34
2022-11-06T22:22:11.554Z,100416.66
2022-11-06T22:24:14.759Z,100426.00
2022-11-06T22:26:26.493Z,100410.88
2022-11-06T22:28:29.004Z,100413.06
2022-11-06T22:30:31.298Z,100416.72
2022-11-06T22:32:33.476Z,100418.41
2022-11-06T22:34:35.971Z,100416.87
2022-11-06T22:36:38.773Z,100412.94
2022-11-06T22:38:43.407Z,100415.88
2022-11-06T22:40:56.588Z,100404.31
2022-11-06T22:42:58.890Z,100410.03
2022-11-06T22:45:01.357Z,100410.97
2022-11-06T22:47:05.134Z,100412.94
2022-11-06T22:49:07.377Z,100418.56
2022-11-06T22:51:12.766Z,100416.66
2022-11-06T22:53:15.495Z,100417.84
2022-11-06T22:55:17.760Z,100421.09
2022-11-06T22:57:19.929Z,100421.53
2022-11-06T22:59:22.541Z,100422.22
2022-11-06T23:01:27.446Z,100421.66
2022-11-06T23:03:30.721Z,100421.72
2022-11-06T23:05:33.326Z,100421.94
2022-11-06T23:07:35.530Z,100426.81
2022-11-06T23:09:37.881Z,100429.47
2022-11-06T23:11:40.445Z,100428.78
2022-11-06T23:13:43.995Z,100427.72
2022-11-06T23:15:46.244Z,100433.09
2022-11-06T23:17:49.051Z,100425.59
2022-11-06T23:19:51.508Z,100431.53
2022-11-06T23:22:13.144Z,100431.31
2022-11-06T23:24:15.892Z,100423.06
2022-11-06T23:26:18.961Z,100422.09
2022-11-06T23:28:21.580Z,100416.72
